Weather at Tølløse Flying Club Glider Field

Public forecast

Using degrees Celsius for public forecast. Weather courtesy of forecast.io.

Closest aviation weather report (METAR) to Tølløse Flying Club Glider Field

Closest report is Ringsted Airfield, 9.5 nm (17.6 km) S.

2024/05/18 23:20 (retrieved 26 minutes ago)

EKRS 182320Z AUTO 05004KT 9999 NCD 12/06 Q1012

Closest aviation forecast (TAF) to Tølløse Flying Club Glider Field

Closest forecast is Copenhagen Kastrup Airport, 30.5 nm (56.5 km) E.

2024/05/18 18:31 (retrieved 5 hours ago)

TAF EKCH 181702Z 1818/1918 07010KT CAVOK PROB40 1906/1910 SCT050CB BECMG 1909/1911 19008KT TEMPO 1910/1917 SCT050CB